Time;durP1;ratioP1;P1;durP2;ratioP2;P2;SDS_P1;SDS_P2;PMS_P1;PMS_P2;Temp;Humidity;BMP_temperature;BMP_pressure;BME280_temperature;BME280_humidity;BME280_pressure;Samples;Min_cycle;Max_cycle;Signal;HPM_P1;HPM_P2
2022/03/29 00:00:48;;;;;;;;;;;;;;;5.82;100.00;99154.78;5071964;28;20023;-73
2022/03/29 00:03:15;;;;;;;;;;;;;;;5.50;100.00;99151.81;5045029;28;19925;-74
2022/03/29 00:05:43;;;;;;;;;;;;;;;5.93;100.00;99147.31;5035824;28;20372;-74
2022/03/29 00:08:09;;;;;;;;;;;;;;;6.12;100.00;99144.22;5063620;28;19970;-74
2022/03/29 00:10:38;;;;;;;;;;;;;;;6.08;100.00;99141.41;5039094;28;19925;-73
2022/03/29 00:13:05;;;;;;;;;;;;;;;6.15;100.00;99141.44;5020608;28;20409;-74
2022/03/29 00:15:49;;;;;;;;;;;;;;;5.97;100.00;99134.25;5073610;28;19995;-74
2022/03/29 00:18:16;;;;;;;;;;;;;;;6.22;100.00;99132.34;5053999;28;19962;-74
2022/03/29 00:20:43;;;;;;;;;;;;;;;6.24;100.00;99144.63;5055288;28;20291;-74
2022/03/29 00:23:10;;;;;;;;;;;;;;;6.30;100.00;99136.72;5049892;28;19960;-74
2022/03/29 00:25:37;;;;;;;;;;;;;;;6.14;100.00;99127.94;5053412;28;19956;-73
2022/03/29 00:28:04;;;;;;;;;;;;;;;6.12;100.00;99122.03;5073436;28;19928;-73
2022/03/29 00:30:32;;;;;;;;;;;;;;;6.14;100.00;99123.22;5051243;28;19979;-73
2022/03/29 00:33:00;;;;;;;;;;;;;;;6.12;100.00;99119.25;5036438;28;19932;-74
2022/03/29 00:35:27;;;;;;;;;;;;;;;6.07;100.00;99128.75;5035646;28;19929;-73
2022/03/29 00:37:54;;;;;;;;;;;;;;;6.10;100.00;99113.28;5035589;28;19931;-73
2022/03/29 00:40:21;;;;;;;;;;;;;;;6.04;100.00;99117.63;5019179;28;19931;-73
2022/03/29 00:42:49;;;;;;;;;;;;;;;5.93;100.00;99114.03;5055138;28;19990;-73
2022/03/29 00:45:16;;;;;;;;;;;;;;;5.68;100.00;99118.66;5072668;28;19963;-73
2022/03/29 00:47:43;;;;;;;;;;;;;;;5.88;100.00;99111.66;5066559;28;20008;-73
2022/03/29 00:50:10;;;;;;;;;;;;;;;5.99;100.00;99109.69;5041969;28;20261;-73
2022/03/29 00:52:38;;;;;;;;;;;;;;;5.23;100.00;99112.50;5035482;28;19986;-73
2022/03/29 00:55:06;;;;;;;;;;;;;;;5.53;100.00;99103.94;5068049;28;19951;-73
2022/03/29 00:57:34;;;;;;;;;;;;;;;5.67;100.00;99103.19;5019883;28;19925;-73
2022/03/29 01:00:03;;;;;;;;;;;;;;;5.64;100.00;99104.78;5053208;28;20372;-73
2022/03/29 01:02:30;;;;;;;;;;;;;;;5.63;100.00;99099.63;5020256;28;19968;-73
2022/03/29 01:04:57;;;;;;;;;;;;;;;5.49;100.00;99105.91;5073652;28;20031;-73
2022/03/29 01:07:27;;;;;;;;;;;;;;;5.56;100.00;99101.19;5056670;28;19925;-74
2022/03/29 01:09:54;;;;;;;;;;;;;;;5.56;100.00;99101.19;5006153;28;20344;-73
2022/03/29 01:12:22;;;;;;;;;;;;;;;5.48;100.00;99096.00;5038845;28;19925;-73
2022/03/29 01:14:49;;;;;;;;;;;;;;;5.42;100.00;99103.88;5074075;28;19929;-74
2022/03/29 01:20:06;;;;;;;;;;;;;;;5.55;100.00;99102.38;5064272;28;19924;-74
2022/03/29 01:22:34;;;;;;;;;;;;;;;5.05;100.00;99086.66;5056458;28;19971;-73
2022/03/29 01:25:02;;;;;;;;;;;;;;;5.09;100.00;99090.25;5061713;28;19925;-73
2022/03/29 01:27:30;;;;;;;;;;;;;;;5.20;100.00;99079.22;5049309;28;19925;-74
2022/03/29 01:29:59;;;;;;;;;;;;;;;5.22;100.00;99086.00;5038377;28;19932;-73
2022/03/29 01:32:29;;;;;;;;;;;;;;;5.30;100.00;99084.81;5072523;28;20368;-73
2022/03/29 01:34:58;;;;;;;;;;;;;;;5.13;100.00;99079.19;5057171;28;19925;-73
2022/03/29 01:37:25;;;;;;;;;;;;;;;4.81;100.00;99084.53;5038428;28;19925;-74
2022/03/29 01:39:53;;;;;;;;;;;;;;;4.97;100.00;99084.22;5038054;28;19925;-73
2022/03/29 01:42:20;;;;;;;;;;;;;;;5.11;100.00;99084.31;5038114;28;19932;-74
2022/03/29 01:44:47;;;;;;;;;;;;;;;5.20;100.00;99084.75;5072476;28;19924;-73
2022/03/29 01:47:18;;;;;;;;;;;;;;;5.16;100.00;99073.69;5075429;28;19924;-73
2022/03/29 01:49:45;;;;;;;;;;;;;;;5.26;100.00;99081.25;5055718;28;19925;-73
2022/03/29 01:52:13;;;;;;;;;;;;;;;5.34;100.00;99073.75;5057857;28;19924;-73
2022/03/29 01:54:40;;;;;;;;;;;;;;;5.19;100.00;99075.69;5061930;28;19948;-73
2022/03/29 01:57:07;;;;;;;;;;;;;;;5.26;100.00;99072.94;5038922;28;19929;-73
2022/03/29 02:02:26;;;;;;;;;;;;;;;5.15;100.00;99065.75;5075181;28;19924;-73
2022/03/29 02:04:53;;;;;;;;;;;;;;;5.17;100.00;99064.19;5041599;28;19925;-74
2022/03/29 02:07:23;;;;;;;;;;;;;;;5.17;100.00;99066.16;5073489;28;20282;-74
2022/03/29 02:09:50;;;;;;;;;;;;;;;5.05;100.00;99061.75;5030720;28;19928;-73
2022/03/29 02:12:17;;;;;;;;;;;;;;;5.11;100.00;99046.34;5038484;28;19980;-74
2022/03/29 02:14:44;;;;;;;;;;;;;;;5.02;100.00;99045.91;5021158;28;19924;-73
2022/03/29 02:17:12;;;;;;;;;;;;;;;5.10;100.00;99047.50;5052939;28;19990;-73
2022/03/29 02:19:38;;;;;;;;;;;;;;;5.09;100.00;99047.91;5064663;28;19932;-73
2022/03/29 02:22:05;;;;;;;;;;;;;;;4.96;100.00;99050.22;5056347;28;19933;-73
2022/03/29 02:24:33;;;;;;;;;;;;;;;4.91;100.00;99045.03;5056615;28;19924;-73
2022/03/29 02:27:00;;;;;;;;;;;;;;;4.74;100.00;99031.88;5038647;28;20098;-73
2022/03/29 02:29:27;;;;;;;;;;;;;;;4.59;100.00;99044.03;5055008;28;19947;-73
2022/03/29 02:31:53;;;;;;;;;;;;;;;4.58;100.00;99042.44;5036774;28;20018;-73
2022/03/29 02:34:21;;;;;;;;;;;;;;;4.12;100.00;99046.03;5021893;28;20024;-73
2022/03/29 02:36:48;;;;;;;;;;;;;;;4.09;100.00;99039.25;5049088;28;20023;-73
2022/03/29 02:39:15;;;;;;;;;;;;;;;4.38;100.00;99032.81;5055278;28;20279;-73
2022/03/29 02:41:42;;;;;;;;;;;;;;;4.44;100.00;99028.50;5057019;28;20007;-73
2022/03/29 02:44:09;;;;;;;;;;;;;;;4.55;100.00;99023.84;5074039;28;19932;-73
2022/03/29 02:46:40;;;;;;;;;;;;;;;4.61;100.00;99025.06;5045718;28;20430;-73
2022/03/29 02:49:08;;;;;;;;;;;;;;;4.37;100.00;99025.69;5040987;28;19928;-73
2022/03/29 02:51:35;;;;;;;;;;;;;;;4.24;100.00;99024.38;5039830;28;20016;-73
2022/03/29 02:54:02;;;;;;;;;;;;;;;4.39;100.00;99026.06;5070090;28;19979;-73
2022/03/29 02:56:29;;;;;;;;;;;;;;;4.28;100.00;99022.44;5061185;28;19924;-74
2022/03/29 02:58:56;;;;;;;;;;;;;;;3.96;100.00;99026.91;5055583;28;19975;-73
2022/03/29 03:01:23;;;;;;;;;;;;;;;4.29;100.00;99018.50;5055143;28;20376;-73
2022/03/29 03:03:51;;;;;;;;;;;;;;;4.37;100.00;99014.63;5054357;28;20334;-73
2022/03/29 03:06:18;;;;;;;;;;;;;;;4.47;100.00;99008.38;5061263;28;19924;-73
2022/03/29 03:08:45;;;;;;;;;;;;;;;4.39;100.00;98992.09;5073961;28;19924;-73
2022/03/29 03:11:12;;;;;;;;;;;;;;;4.08;100.00;98996.22;5056221;28;20007;-73
2022/03/29 03:13:40;;;;;;;;;;;;;;;3.77;100.00;98996.72;5055483;28;20027;-73
2022/03/29 03:16:08;;;;;;;;;;;;;;;4.27;100.00;98990.41;5058925;28;20436;-73
2022/03/29 03:18:36;;;;;;;;;;;;;;;4.38;100.00;98988.53;5039543;28;19948;-73
2022/03/29 03:21:03;;;;;;;;;;;;;;;4.41;100.00;98982.25;5054452;28;19986;-73
2022/03/29 03:23:30;;;;;;;;;;;;;;;4.50;100.00;98979.94;5039263;28;19929;-74
2022/03/29 03:25:57;;;;;;;;;;;;;;;4.37;100.00;98977.84;5063089;28;20062;-73
2022/03/29 03:28:24;;;;;;;;;;;;;;;4.11;100.00;98978.84;5046726;28;20352;-73
2022/03/29 03:30:53;;;;;;;;;;;;;;;3.63;100.00;98974.47;5054082;28;19928;-73
2022/03/29 03:33:20;;;;;;;;;;;;;;;3.31;100.00;98978.84;5037987;28;20023;-73
2022/03/29 03:35:47;;;;;;;;;;;;;;;3.41;100.00;98978.16;5071593;28;19931;-74
2022/03/29 03:38:14;;;;;;;;;;;;;;;3.87;100.00;98979.44;5019660;28;20386;-73
2022/03/29 03:40:41;;;;;;;;;;;;;;;4.13;100.00;98965.44;5053664;28;20280;-73
2022/03/29 03:43:08;;;;;;;;;;;;;;;4.00;100.00;98966.91;5039130;28;20360;-73
2022/03/29 03:45:36;;;;;;;;;;;;;;;4.17;100.00;98966.25;5055017;28;19925;-73
2022/03/29 03:48:03;;;;;;;;;;;;;;;4.25;100.00;98954.06;5035770;28;20011;-73
2022/03/29 03:50:34;;;;;;;;;;;;;;;4.30;100.00;98959.22;5043643;28;19931;-73
2022/03/29 03:53:01;;;;;;;;;;;;;;;4.34;100.00;98953.72;5055438;28;20332;-73
2022/03/29 03:55:28;;;;;;;;;;;;;;;4.31;100.00;98949.78;5072734;28;19925;-73
2022/03/29 03:57:55;;;;;;;;;;;;;;;4.28;100.00;98950.53;5035934;28;19974;-73
2022/03/29 04:00:24;;;;;;;;;;;;;;;4.26;100.00;98952.09;5054611;28;19930;-73
2022/03/29 04:02:51;;;;;;;;;;;;;;;4.18;100.00;98939.41;5061004;28;20027;-73
2022/03/29 04:05:19;;;;;;;;;;;;;;;4.20;100.00;98946.13;5015047;28;19925;-73
2022/03/29 04:07:46;;;;;;;;;;;;;;;4.19;100.00;98940.97;5053449;28;19925;-73
2022/03/29 04:10:14;;;;;;;;;;;;;;;3.94;100.00;98938.03;5073092;28;20445;-73
2022/03/29 04:12:41;;;;;;;;;;;;;;;3.54;100.00;98929.78;5055552;28;19934;-73
2022/03/29 04:15:08;;;;;;;;;;;;;;;3.30;100.00;98930.34;5060734;28;19932;-73
2022/03/29 04:17:35;;;;;;;;;;;;;;;3.56;100.00;98919.94;5051531;28;20078;-73
2022/03/29 04:20:03;;;;;;;;;;;;;;;3.84;100.00;98924.13;5059571;28;19924;-73
2022/03/29 04:22:30;;;;;;;;;;;;;;;3.02;100.00;98918.97;5051640;28;20387;-73
2022/03/29 04:24:57;;;;;;;;;;;;;;;2.81;100.00;98921.47;5055074;28;19925;-73
2022/03/29 04:27:24;;;;;;;;;;;;;;;3.32;100.00;98925.19;5070009;28;19951;-73
2022/03/29 04:29:51;;;;;;;;;;;;;;;3.60;100.00;98914.44;5046698;28;19924;-73
2022/03/29 04:32:18;;;;;;;;;;;;;;;3.70;100.00;98919.25;5072215;28;19956;-73
2022/03/29 04:34:46;;;;;;;;;;;;;;;3.87;100.00;98909.53;5049699;28;19970;-73
2022/03/29 04:37:14;;;;;;;;;;;;;;;3.92;100.00;98910.00;5036799;28;19924;-73
2022/03/29 04:39:41;;;;;;;;;;;;;;;3.69;100.00;98907.44;5058123;28;19978;-73
2022/03/29 04:42:08;;;;;;;;;;;;;;;2.91;100.00;98907.00;5076442;28;20387;-73
2022/03/29 04:44:35;;;;;;;;;;;;;;;2.79;100.00;98907.25;5053357;28;19925;-73
2022/03/29 04:47:03;;;;;;;;;;;;;;;3.45;100.00;98896.94;5058592;28;19924;-73
2022/03/29 04:49:31;;;;;;;;;;;;;;;3.53;100.00;98903.31;5068147;28;19933;-73
2022/03/29 04:51:59;;;;;;;;;;;;;;;3.48;100.00;98895.38;5038571;28;20023;-73
2022/03/29 04:54:26;;;;;;;;;;;;;;;3.18;100.00;98897.47;5059999;28;20486;-73
2022/03/29 04:56:53;;;;;;;;;;;;;;;3.40;100.00;98905.59;5041875;28;20019;-73
2022/03/29 04:59:20;;;;;;;;;;;;;;;3.31;100.00;98904.28;5051978;28;19929;-73
2022/03/29 05:01:47;;;;;;;;;;;;;;;2.92;100.00;98900.31;5073516;28;20015;-73
2022/03/29 05:04:15;;;;;;;;;;;;;;;3.10;100.00;98901.31;5068617;28;19925;-73
2022/03/29 05:06:42;;;;;;;;;;;;;;;3.34;100.00;98900.78;5056667;28;20015;-73
2022/03/29 05:09:09;;;;;;;;;;;;;;;3.37;100.00;98898.06;5039679;28;19925;-73
2022/03/29 05:11:36;;;;;;;;;;;;;;;3.59;100.00;98907.31;5040396;28;20008;-73
2022/03/29 05:14:03;;;;;;;;;;;;;;;3.58;100.00;98911.25;5038798;28;19962;-73
2022/03/29 05:16:30;;;;;;;;;;;;;;;3.57;100.00;98901.41;5056425;28;19943;-73
2022/03/29 05:18:57;;;;;;;;;;;;;;;3.58;100.00;98912.06;5059030;28;19924;-73
2022/03/29 05:21:24;;;;;;;;;;;;;;;3.57;100.00;98899.41;5041835;28;19925;-74
2022/03/29 05:23:52;;;;;;;;;;;;;;;3.12;100.00;98904.50;5075888;28;19924;-73
2022/03/29 05:26:19;;;;;;;;;;;;;;;2.85;100.00;98911.25;5057566;28;20352;-74
2022/03/29 05:28:46;;;;;;;;;;;;;;;3.14;100.00;98907.66;5055384;28;19939;-73
2022/03/29 05:43:39;;;;;;;;;;;;;;;3.36;100.00;98910.25;5111681;27;20300;-79
2022/03/29 05:49:17;;;;;;;;;;;;;;;3.49;100.00;98913.53;5093152;28;20378;-79
2022/03/29 05:51:44;;;;;;;;;;;;;;;3.64;100.00;98910.53;5127319;28;19954;-77
2022/03/29 05:54:11;;;;;;;;;;;;;;;3.76;100.00;98914.97;5093200;28;19995;-77
2022/03/29 05:56:38;;;;;;;;;;;;;;;3.87;100.00;98909.53;5110513;28;19924;-75
2022/03/29 05:59:08;;;;;;;;;;;;;;;3.72;100.00;98912.19;5107049;28;19952;-75
2022/03/29 06:01:37;;;;;;;;;;;;;;;3.74;100.00;98904.28;5088831;28;20404;-76
2022/03/29 06:04:06;;;;;;;;;;;;;;;3.84;100.00;98902.81;5107192;28;19928;-76
2022/03/29 06:06:59;;;;;;;;;;;;;;;3.85;100.00;98898.84;5107947;28;19950;-75
2022/03/29 06:09:26;;;;;;;;;;;;;;;3.80;100.00;98899.22;5071482;28;20039;-76
2022/03/29 06:11:53;;;;;;;;;;;;;;;3.86;100.00;98894.13;5107792;28;20385;-75
2022/03/29 06:14:22;;;;;;;;;;;;;;;3.91;100.00;98897.31;5107566;28;19931;-76
2022/03/29 06:16:49;;;;;;;;;;;;;;;3.99;100.00;98898.97;5106683;28;19928;-76
2022/03/29 06:19:16;;;;;;;;;;;;;;;4.02;100.00;98900.16;5090014;28;19955;-75
2022/03/29 06:21:43;;;;;;;;;;;;;;;4.13;100.00;98898.28;5106934;28;20018;-76
2022/03/29 06:24:10;;;;;;;;;;;;;;;4.11;100.00;98895.91;5107066;28;20428;-76
2022/03/29 06:29:57;;;;;;;;;;;;;;;4.29;100.00;98894.03;5103762;28;20275;-75
2022/03/29 06:32:24;;;;;;;;;;;;;;;4.30;100.00;98886.53;5108870;28;20039;-76
2022/03/29 06:34:51;;;;;;;;;;;;;;;4.53;100.00;98889.84;5092080;28;19928;-76
2022/03/29 06:37:18;;;;;;;;;;;;;;;4.15;100.00;98890.41;5092053;28;19928;-76
2022/03/29 06:39:46;;;;;;;;;;;;;;;4.11;100.00;98890.38;5110161;28;19931;-76
2022/03/29 06:42:18;;;;;;;;;;;;;;;4.34;100.00;98888.16;5110429;28;19924;-76
2022/03/29 06:44:45;;;;;;;;;;;;;;;4.57;100.00;98883.13;5092526;28;19930;-76
2022/03/29 06:47:12;;;;;;;;;;;;;;;4.62;100.00;98888.28;5110119;28;19923;-76
2022/03/29 06:49:40;;;;;;;;;;;;;;;4.65;100.00;98886.72;5110120;28;20344;-76
2022/03/29 06:52:07;;;;;;;;;;;;;;;4.73;100.00;98886.38;5108348;28;19932;-75
2022/03/29 06:54:35;;;;;;;;;;;;;;;4.18;100.00;98889.63;5085242;28;20016;-75
2022/03/29 06:57:02;;;;;;;;;;;;;;;3.73;100.00;98885.34;5094508;28;19924;-75
2022/03/29 06:59:29;;;;;;;;;;;;;;;4.08;100.00;98884.81;5094608;28;19942;-76
2022/03/29 07:02:02;;;;;;;;;;;;;;;4.50;100.00;98888.63;5076767;28;20024;-75
2022/03/29 07:04:29;;;;;;;;;;;;;;;4.72;100.00;98887.56;5078597;28;19928;-75
2022/03/29 07:06:56;;;;;;;;;;;;;;;4.92;100.00;98886.03;5096055;28;20378;-75
2022/03/29 07:12:14;;;;;;;;;;;;;;;4.72;100.00;98882.03;5096439;28;19977;-75
2022/03/29 07:14:41;;;;;;;;;;;;;;;4.69;100.00;98882.00;5095748;28;19981;-75
2022/03/29 07:17:13;;;;;;;;;;;;;;;5.07;100.00;98898.75;5078042;28;19931;-75
2022/03/29 07:19:40;;;;;;;;;;;;;;;5.57;100.00;98897.66;5096096;28;19931;-75
2022/03/29 07:22:07;;;;;;;;;;;;;;;6.35;100.00;98904.00;5096067;28;19924;-75
2022/03/29 07:24:34;;;;;;;;;;;;;;;6.95;100.00;98889.97;5095906;28;19969;-75
2022/03/29 07:27:01;;;;;;;;;;;;;;;7.35;100.00;98892.91;5061303;28;19959;-75
2022/03/29 07:29:28;;;;;;;;;;;;;;;7.94;100.00;98896.47;5095760;28;19950;-76
2022/03/29 07:31:55;;;;;;;;;;;;;;;8.53;100.00;98891.56;5078404;28;20310;-76
2022/03/29 07:34:22;;;;;;;;;;;;;;;9.11;100.00;98888.50;5061058;28;19924;-75
2022/03/29 07:36:51;;;;;;;;;;;;;;;9.71;100.00;98884.88;5094471;28;19931;-75
2022/03/29 07:39:19;;;;;;;;;;;;;;;10.25;100.00;98889.94;5089956;28;19925;-74
2022/03/29 07:41:49;;;;;;;;;;;;;;;10.34;100.00;98879.03;5092805;28;19925;-75
2022/03/29 07:44:19;;;;;;;;;;;;;;;10.03;100.00;98874.75;5083332;28;20043;-76
2022/03/29 07:46:47;;;;;;;;;;;;;;;9.88;100.00;98872.63;5082680;28;19928;-75
2022/03/29 07:49:14;;;;;;;;;;;;;;;9.79;100.00;98886.31;5095639;28;19931;-75
2022/03/29 07:51:58;;;;;;;;;;;;;;;9.76;100.00;98876.00;5095282;28;19924;-75
2022/03/29 07:54:25;;;;;;;;;;;;;;;9.77;100.00;98874.81;5090059;28;19928;-75
2022/03/29 07:56:52;;;;;;;;;;;;;;;9.56;100.00;98878.69;5076012;28;19924;-75
2022/03/29 07:59:20;;;;;;;;;;;;;;;9.32;100.00;98882.63;5057501;28;19981;-75
2022/03/29 08:01:47;;;;;;;;;;;;;;;9.18;100.00;98880.03;5088793;28;20011;-75
2022/03/29 08:04:16;;;;;;;;;;;;;;;8.99;100.00;98878.69;5094946;28;19924;-75
2022/03/29 08:06:43;;;;;;;;;;;;;;;9.01;100.00;98887.41;5078522;28;19947;-75
2022/03/29 08:09:10;;;;;;;;;;;;;;;9.23;100.00;98887.13;5075663;28;19924;-75
2022/03/29 08:11:40;;;;;;;;;;;;;;;9.28;100.00;98872.72;5077791;28;19928;-75
2022/03/29 08:14:07;;;;;;;;;;;;;;;9.43;100.00;98879.69;5089105;28;20321;-75
2022/03/29 08:16:34;;;;;;;;;;;;;;;9.50;100.00;98868.41;5093883;28;20009;-75
2022/03/29 08:19:01;;;;;;;;;;;;;;;9.54;100.00;98872.75;5073005;28;19928;-75
2022/03/29 08:24:15;;;;;;;;;;;;;;;9.67;100.00;98870.16;5092421;28;19924;-75
2022/03/29 08:26:42;;;;;;;;;;;;;;;9.79;100.00;98869.56;5072889;28;20296;-75
2022/03/29 08:29:11;;;;;;;;;;;;;;;10.41;100.00;98861.34;5107122;28;19932;-77
2022/03/29 08:31:40;;;;;;;;;;;;;;;10.69;100.00;98860.81;5090575;28;19924;-84
2022/03/29 08:34:07;;;;;;;;;;;;;;;11.11;100.00;98854.34;5094582;28;19931;-79
2022/03/29 08:36:36;;;;;;;;;;;;;;;11.39;100.00;98848.13;5074062;28;20026;-81
2022/03/29 08:39:04;;;;;;;;;;;;;;;11.52;100.00;98851.03;5074501;28;20310;-80
2022/03/29 08:41:35;;;;;;;;;;;;;;;11.38;100.00;98840.97;5091501;28;19931;-79
2022/03/29 08:44:03;;;;;;;;;;;;;;;11.22;100.00;98835.34;5054793;28;19949;-78
2022/03/29 08:46:38;;;;;;;;;;;;;;;11.16;100.00;98834.28;5056666;28;19924;-78
2022/03/29 08:49:06;;;;;;;;;;;;;;;10.90;100.00;98829.66;5073991;28;19924;-78
2022/03/29 08:51:34;;;;;;;;;;;;;;;10.98;100.00;98827.50;5091260;28;20375;-79
2022/03/29 08:54:02;;;;;;;;;;;;;;;10.99;100.00;98832.66;5089912;28;19935;-78
2022/03/29 08:56:29;;;;;;;;;;;;;;;11.09;100.00;98828.81;5090954;28;19924;-77
2022/03/29 08:58:56;;;;;;;;;;;;;;;11.28;100.00;98825.22;5090659;28;20358;-79
2022/03/29 09:01:23;;;;;;;;;;;;;;;11.49;100.00;98824.72;5090138;28;19928;-78
2022/03/29 09:04:08;;;;;;;;;;;;;;;11.43;100.00;98820.06;5072834;28;20026;-77
2022/03/29 09:06:50;;;;;;;;;;;;;;;11.69;100.00;98822.66;5090915;28;19924;-79
2022/03/29 09:09:22;;;;;;;;;;;;;;;11.64;100.00;98817.59;5089263;28;20256;-77
2022/03/29 09:11:51;;;;;;;;;;;;;;;11.99;100.00;98813.94;5072211;28;20439;-77
2022/03/29 09:14:18;;;;;;;;;;;;;;;12.14;100.00;98817.13;5091022;28;20531;-78
2022/03/29 09:17:11;;;;;;;;;;;;;;;12.23;100.00;98818.09;5071840;28;19924;-78
2022/03/29 09:19:48;;;;;;;;;;;;;;;12.36;100.00;98810.53;5074755;28;20427;-78
2022/03/29 09:22:36;;;;;;;;;;;;;;;12.48;100.00;98811.81;5092561;28;19978;-77
2022/03/29 09:25:04;;;;;;;;;;;;;;;12.29;100.00;98815.53;5075774;28;19953;-78
2022/03/29 09:27:50;;;;;;;;;;;;;;;12.19;100.00;98817.38;5076251;28;19935;-80
2022/03/29 09:30:18;;;;;;;;;;;;;;;11.81;100.00;98816.38;5076730;28;20278;-78
2022/03/29 09:33:05;;;;;;;;;;;;;;;11.22;100.00;98826.94;5071310;28;19930;-77
2022/03/29 09:35:33;;;;;;;;;;;;;;;11.05;100.00;98816.94;5072606;28;19974;-77
2022/03/29 09:38:01;;;;;;;;;;;;;;;11.96;100.00;98814.00;5090330;28;19924;-77
2022/03/29 09:40:32;;;;;;;;;;;;;;;12.37;100.00;98798.06;5089274;28;19928;-78
2022/03/29 09:43:21;;;;;;;;;;;;;;;12.37;100.00;98800.88;5090560;28;20584;-79
2022/03/29 09:45:50;;;;;;;;;;;;;;;12.68;100.00;98795.63;5072219;28;19924;-76
2022/03/29 09:48:21;;;;;;;;;;;;;;;12.54;100.00;98799.59;5089443;28;20023;-76
2022/03/29 09:50:52;;;;;;;;;;;;;;;12.13;100.00;98804.38;5072042;28;19970;-76
2022/03/29 09:53:33;;;;;;;;;;;;;;;12.27;100.00;98792.75;5089648;28;20016;-76
2022/03/29 09:56:11;;;;;;;;;;;;;;;12.08;100.00;98800.09;5071664;28;19981;-76
2022/03/29 09:58:46;;;;;;;;;;;;;;;12.27;100.00;98796.38;5055725;28;19963;-77
2022/03/29 10:01:23;;;;;;;;;;;;;;;12.62;100.00;98801.00;5072912;28;19924;-77
2022/03/29 10:03:52;;;;;;;;;;;;;;;12.89;100.00;98789.38;5055592;28;19935;-76
2022/03/29 10:06:21;;;;;;;;;;;;;;;12.70;100.00;98782.75;5090054;28;20057;-78
2022/03/29 10:11:36;;;;;;;;;;;;;;;12.46;100.00;98783.44;5090339;28;19928;-77
2022/03/29 10:14:04;;;;;;;;;;;;;;;12.49;100.00;98791.78;5090002;28;20013;-77
2022/03/29 10:16:57;;;;;;;;;;;;;;;12.24;100.00;98785.25;5072816;28;20000;-76
2022/03/29 10:19:25;;;;;;;;;;;;;;;12.24;100.00;98780.44;5069076;28;19936;-76
2022/03/29 10:21:59;;;;;;;;;;;;;;;13.34;100.00;98783.66;5054431;28;20350;-77
2022/03/29 10:24:27;;;;;;;;;;;;;;;12.94;100.00;98776.84;5069379;28;19931;-77
2022/03/29 10:26:59;;;;;;;;;;;;;;;13.37;100.00;98782.75;5089539;28;20014;-77
2022/03/29 10:29:28;;;;;;;;;;;;;;;12.49;100.00;98780.56;5089719;28;19935;-78
2022/03/29 10:31:58;;;;;;;;;;;;;;;12.08;100.00;98786.09;5060466;28;19993;-81
2022/03/29 10:34:26;;;;;;;;;;;;;;;12.37;100.00;98777.69;5094419;28;19924;-81
2022/03/29 10:37:14;;;;;;;;;;;;;;;11.77;100.00;98790.47;5094943;28;19931;-80
2022/03/29 10:39:41;;;;;;;;;;;;;;;11.51;100.00;98776.72;5060619;28;20359;-80
2022/03/29 10:42:23;;;;;;;;;;;;;;;11.64;100.00;98764.44;5076617;28;19974;-80
2022/03/29 10:44:58;;;;;;;;;;;;;;;11.57;100.00;98772.94;5076094;28;20298;-81
2022/03/29 10:47:44;;;;;;;;;;;;;;;11.50;100.00;98775.94;5094026;28;19928;-80
2022/03/29 10:50:12;;;;;;;;;;;;;;;11.62;100.00;98772.47;5091313;28;20020;-80
2022/03/29 10:52:42;;;;;;;;;;;;;;;12.12;100.00;98769.16;5092003;28;19931;-80
2022/03/29 10:55:13;;;;;;;;;;;;;;;12.64;100.00;98772.53;5076537;28;20562;-80
2022/03/29 10:58:02;;;;;;;;;;;;;;;12.12;100.00;98771.97;5076145;28;19931;-80
2022/03/29 11:00:31;;;;;;;;;;;;;;;11.85;100.00;98771.50;5076934;28;19924;-80
2022/03/29 11:03:31;;;;;;;;;;;;;;;11.79;100.00;98776.03;5058993;28;19943;-80
2022/03/29 11:06:06;;;;;;;;;;;;;;;11.94;100.00;98766.06;5095961;28;19924;-80
2022/03/29 11:08:36;;;;;;;;;;;;;;;11.77;100.00;98770.88;5096631;28;19943;-80
2022/03/29 11:11:04;;;;;;;;;;;;;;;11.39;100.00;98780.97;5076796;28;20359;-80
2022/03/29 11:13:34;;;;;;;;;;;;;;;11.39;100.00;98780.22;5062122;28;19924;-80
2022/03/29 11:16:21;;;;;;;;;;;;;;;11.20;100.00;98772.66;5062286;28;19924;-80
2022/03/29 11:18:48;;;;;;;;;;;;;;;11.38;100.00;98779.41;5096595;28;19976;-80
2022/03/29 11:21:29;;;;;;;;;;;;;;;11.42;100.00;98774.53;5078378;28;19928;-80
2022/03/29 11:23:59;;;;;;;;;;;;;;;12.30;100.00;98770.28;5096698;28;19966;-80
2022/03/29 11:26:27;;;;;;;;;;;;;;;12.01;100.00;98768.69;5077882;28;19933;-80
2022/03/29 11:28:55;;;;;;;;;;;;;;;12.10;100.00;98771.66;5094689;28;19959;-80
2022/03/29 11:31:24;;;;;;;;;;;;;;;11.63;100.00;98771.22;5095305;28;20018;-80
2022/03/29 11:33:58;;;;;;;;;;;;;;;11.72;100.00;98771.41;5071161;28;19924;-79
2022/03/29 11:37:27;;;;;;;;;;;;;;;11.87;100.00;98764.25;5066439;28;20515;-80
2022/03/29 11:39:56;;;;;;;;;;;;;;;11.85;100.00;98760.28;5090810;28;19924;-80
2022/03/29 11:42:23;;;;;;;;;;;;;;;11.84;100.00;98753.94;5077400;28;19962;-80
2022/03/29 11:44:51;;;;;;;;;;;;;;;12.43;100.00;98757.09;5083073;28;19964;-80
2022/03/29 11:47:42;;;;;;;;;;;;;;;13.00;100.00;98755.44;5075248;28;19924;-80
2022/03/29 11:55:56;;;;;;;;;;;;;;;12.06;100.00;98738.13;4950563;28;20316;-82
2022/03/29 11:58:25;;;;;;;;;;;;;;;12.85;100.00;98740.25;5032438;28;19928;-82
2022/03/29 12:00:57;;;;;;;;;;;;;;;12.71;100.00;98733.84;5076821;28;20039;-82
2022/03/29 12:03:39;;;;;;;;;;;;;;;13.24;100.00;98728.69;5040381;28;19924;-83
2022/03/29 12:06:20;;;;;;;;;;;;;;;12.93;100.00;98734.00;5059330;28;19924;-82
2022/03/29 12:08:47;;;;;;;;;;;;;;;12.94;100.00;98723.56;5077396;28;19924;-82
2022/03/29 12:11:16;;;;;;;;;;;;;;;13.21;100.00;98710.69;5111159;28;20010;-80
2022/03/29 12:13:44;;;;;;;;;;;;;;;12.90;100.00;98712.47;5072922;28;19924;-80
2022/03/29 12:16:15;;;;;;;;;;;;;;;12.87;100.00;98710.56;5057529;28;20062;-80
2022/03/29 12:18:45;;;;;;;;;;;;;;;13.38;100.00;98700.94;5057437;28;20343;-81
2022/03/29 12:21:14;;;;;;;;;;;;;;;13.03;100.00;98707.69;5040726;28;19925;-80
2022/03/29 12:23:44;;;;;;;;;;;;;;;13.21;100.00;98704.31;5075318;28;19931;-81
2022/03/29 12:26:13;;;;;;;;;;;;;;;13.25;100.00;98697.38;5077274;28;20004;-80
2022/03/29 12:28:41;;;;;;;;;;;;;;;13.47;100.00;98703.03;5095060;28;19947;-81
2022/03/29 12:31:10;;;;;;;;;;;;;;;13.45;100.00;98699.91;5044009;28;19960;-80
2022/03/29 12:33:38;;;;;;;;;;;;;;;12.88;100.00;98694.50;5077034;28;19932;-80
2022/03/29 12:36:07;;;;;;;;;;;;;;;12.95;100.00;98700.69;5076673;28;19930;-80
2022/03/29 12:38:38;;;;;;;;;;;;;;;13.64;100.00;98696.06;5077465;28;20019;-80
2022/03/29 12:41:07;;;;;;;;;;;;;;;13.55;100.00;98687.53;5077357;28;20425;-80
2022/03/29 12:43:35;;;;;;;;;;;;;;;14.02;100.00;98689.09;5094491;28;19928;-80
2022/03/29 12:46:05;;;;;;;;;;;;;;;13.49;100.00;98683.75;5059668;28;20329;-80
2022/03/29 12:48:33;;;;;;;;;;;;;;;13.25;100.00;98680.53;5094491;28;20270;-80
2022/03/29 12:51:05;;;;;;;;;;;;;;;13.18;100.00;98677.16;5094554;28;19923;-81
2022/03/29 12:53:33;;;;;;;;;;;;;;;13.68;100.00;98672.25;5094819;28;19946;-80
2022/03/29 12:56:06;;;;;;;;;;;;;;;14.17;100.00;98664.06;5076687;28;19924;-80
2022/03/29 12:58:35;;;;;;;;;;;;;;;14.24;100.00;98658.22;5094868;28;19931;-80
2022/03/29 13:01:03;;;;;;;;;;;;;;;13.76;100.00;98647.50;5060282;28;19931;-80
2022/03/29 13:03:42;;;;;;;;;;;;;;;14.00;100.00;98643.03;5076011;28;19924;-81
2022/03/29 13:06:09;;;;;;;;;;;;;;;14.43;100.00;98634.63;5076796;28;19924;-81
2022/03/29 13:08:36;;;;;;;;;;;;;;;13.67;100.00;98639.00;5094695;28;19924;-81
2022/03/29 13:11:20;;;;;;;;;;;;;;;12.68;100.00;98639.44;5060373;28;20395;-80
2022/03/29 13:14:06;;;;;;;;;;;;;;;12.60;100.00;98635.28;5076475;28;20355;-81
2022/03/29 13:16:33;;;;;;;;;;;;;;;12.19;100.00;98632.53;5076395;28;19931;-80
2022/03/29 13:19:08;;;;;;;;;;;;;;;11.54;100.00;98636.72;5075451;28;20623;-81
2022/03/29 13:21:38;;;;;;;;;;;;;;;11.84;100.00;98644.75;5074118;28;19930;-81
2022/03/29 13:24:08;;;;;;;;;;;;;;;12.56;100.00;98633.81;5074329;28;20401;-80
2022/03/29 13:26:41;;;;;;;;;;;;;;;12.90;100.00;98635.97;5072067;28;20045;-80
2022/03/29 13:29:14;;;;;;;;;;;;;;;13.29;100.00;98618.66;5063496;28;19924;-80
2022/03/29 13:31:44;;;;;;;;;;;;;;;12.77;100.00;98617.13;5089893;28;19924;-80
2022/03/29 13:34:20;;;;;;;;;;;;;;;12.94;100.00;98619.81;5094426;28;19947;-80